Holt, Florida
Current Conditions -  °F | °C
As of 2:53 PM on Tuesday 25 Nov 2014 (Local Time) from KCEW Reporting Station
Broken Clouds Broken Clouds  
Wind Chill: 52°   Ceiling: 11000
Heat Index: 52°   Visibility: 10mi
Dew Point: 47°   Wind: 5mph
Humidity: 83%   Direction: 350°N
Pressure: 30.03"   Gusts: NA
Location:  30.72°N, 86.75°W
Report Text: KCEW 252053Z AUTO 35004KT 10SM FEW050 BKN110 11/08 A3003 RMK AO2 RAB1955E40 SLP169 P0000 60000 T01110083 56012
Loading
Personal Weather Stations






























Interactive Weather Map New forecast layout! Learn more

10-Day Weather Forecast

Advertisements
Track Severe Weather on mobile